createdAt,value
2019-01-24T00:00:13.174Z,-4.68
2019-01-24T00:05:09.064Z,-4.49
2019-01-24T00:10:08.574Z,-4.79
2019-01-24T00:15:07.472Z,-4.87
2019-01-24T00:20:06.971Z,-4.97
2019-01-24T00:25:05.565Z,-5.15
2019-01-24T00:30:10.632Z,-5.16
2019-01-24T00:35:08.226Z,-5.28
2019-01-24T00:40:07.935Z,-5.56
2019-01-24T00:45:06.330Z,-5.54
2019-01-24T00:50:05.225Z,-5.58
2019-01-24T00:55:01.119Z,-5.55
2019-01-24T01:00:02.218Z,-5.68
2019-01-24T01:04:58.211Z,-5.65
2019-01-24T01:09:54.113Z,-5.87
2019-01-24T01:14:50.004Z,-6.33
2019-01-24T01:19:45.903Z,-5.93
2019-01-24T01:24:41.794Z,-5.78
2019-01-24T01:29:37.694Z,-6.35
2019-01-24T01:34:36.329Z,-6.61
2019-01-24T01:39:31.377Z,-6.51
2019-01-24T01:44:27.260Z,-6.17
2019-01-24T01:49:23.260Z,-6.04
2019-01-24T01:54:19.157Z,-6.08
2019-01-24T01:59:15.048Z,-6.22
2019-01-24T02:04:10.961Z,-6.12
2019-01-24T02:09:07.352Z,-6.12
2019-01-24T02:14:03.947Z,-6.45
2019-01-24T02:18:59.844Z,-6.35
2019-01-24T02:23:55.738Z,-6.48
2019-01-24T02:28:51.737Z,-6.32
2019-01-24T02:33:47.630Z,-6.32
2019-01-24T02:38:43.533Z,-6.62
2019-01-24T02:43:39.426Z,-6.33
2019-01-24T02:48:35.436Z,-6.03
2019-01-24T02:53:31.302Z,-6.21
2019-01-24T02:58:27.203Z,-5.89
2019-01-24T03:03:23.090Z,-5.80
2019-01-24T03:08:19.242Z,-5.20
2019-01-24T03:13:15.859Z,-4.78
2019-01-24T03:18:12.281Z,-4.50
2019-01-24T03:23:08.799Z,-4.44
2019-01-24T03:28:05.436Z,-4.25
2019-01-24T03:33:01.294Z,-4.23
2019-01-24T03:37:57.200Z,-4.33
2019-01-24T03:42:53.191Z,-4.16
2019-01-24T03:47:49.090Z,-4.09
2019-01-24T03:52:45.593Z,-4.14
2019-01-24T03:57:41.589Z,-4.09
2019-01-24T04:02:37.505Z,-4.08
2019-01-24T04:07:33.426Z,-4.08
2019-01-24T04:12:29.345Z,-4.03
2019-01-24T04:17:25.244Z,-4.08
2019-01-24T04:22:21.148Z,-4.03
2019-01-24T04:27:17.041Z,-4.03
2019-01-24T04:32:12.950Z,-3.86
2019-01-24T04:37:08.839Z,-3.86
2019-01-24T04:42:04.725Z,-3.86
2019-01-24T04:47:00.618Z,-4.02
2019-01-24T04:51:56.506Z,-3.93
2019-01-24T04:56:52.398Z,-3.89
2019-01-24T05:01:48.298Z,-3.90
2019-01-24T05:06:44.231Z,-3.88
2019-01-24T05:11:40.121Z,-3.87
2019-01-24T05:16:36.013Z,-3.91
2019-01-24T05:21:31.909Z,-3.98
2019-01-24T05:26:27.797Z,-4.03
2019-01-24T05:31:23.692Z,-3.89
2019-01-24T05:36:19.590Z,-3.94
2019-01-24T05:41:15.486Z,-3.96
2019-01-24T05:46:11.390Z,-3.89
2019-01-24T05:51:07.274Z,-3.86
2019-01-24T05:56:03.367Z,-3.85
2019-01-24T06:01:00.277Z,-3.74
2019-01-24T06:05:56.136Z,-3.77
2019-01-24T06:10:52.086Z,-3.76
2019-01-24T06:15:47.975Z,-3.75
2019-01-24T06:20:43.867Z,-3.84
2019-01-24T06:25:39.772Z,-3.75
2019-01-24T06:30:36.236Z,-3.71
2019-01-24T06:35:32.098Z,-3.72
2019-01-24T06:40:28.181Z,-3.78
2019-01-24T06:45:24.182Z,-3.74
2019-01-24T06:50:20.073Z,-3.75
2019-01-24T06:55:19.270Z,-3.74
2019-01-24T07:00:17.743Z,-3.82
2019-01-24T07:05:13.832Z,-3.82
2019-01-24T07:10:12.430Z,-3.99
2019-01-24T07:15:13.529Z,-3.84
2019-01-24T07:20:11.822Z,-3.84
2019-01-24T07:25:11.582Z,-4.00
2019-01-24T07:30:13.133Z,-3.96
2019-01-24T07:35:11.329Z,-3.80
2019-01-24T07:40:10.427Z,-4.07
2019-01-24T07:45:10.123Z,-3.98
2019-01-24T07:50:09.421Z,-3.91
2019-01-24T07:55:10.879Z,-3.71
2019-01-24T08:00:12.517Z,-3.67
2019-01-24T08:05:10.417Z,-3.74
2019-01-24T08:10:11.711Z,-3.61
2019-01-24T08:15:10.306Z,-3.67
2019-01-24T08:20:14.714Z,-3.69
2019-01-24T08:25:11.828Z,-3.68
2019-01-24T08:30:18.162Z,-3.83
2019-01-24T08:35:14.153Z,-3.61
2019-01-24T08:40:12.949Z,-3.44
2019-01-24T08:45:13.602Z,-3.50
2019-01-24T08:50:38.036Z,-3.61
2019-01-24T08:55:37.645Z,-3.52
2019-01-24T09:00:34.502Z,-3.66
2019-01-24T09:05:30.382Z,-3.62
2019-01-24T09:10:32.375Z,-3.57
2019-01-24T09:15:29.302Z,-3.63
2019-01-24T09:20:25.473Z,-3.60
2019-01-24T09:25:24.318Z,-3.61
2019-01-24T09:30:27.494Z,-3.54
2019-01-24T09:35:23.491Z,-3.50
2019-01-24T09:40:20.479Z,-3.28
2019-01-24T09:45:20.183Z,-3.32
2019-01-24T09:50:20.711Z,-3.55
2019-01-24T09:55:16.706Z,-3.47
2019-01-24T10:00:22.775Z,-3.40
2019-01-24T10:05:18.876Z,-3.43
2019-01-24T10:10:20.714Z,-3.43
2019-01-24T10:15:17.805Z,-3.34
2019-01-24T10:20:18.790Z,-3.49
2019-01-24T10:25:39.457Z,-3.59
2019-01-24T10:30:42.800Z,-3.72
2019-01-24T10:35:35.408Z,-3.78
2019-01-24T10:40:31.898Z,-3.56
2019-01-24T10:45:29.021Z,-3.61
2019-01-24T10:50:26.630Z,-3.68
2019-01-24T10:55:24.430Z,-3.49
2019-01-24T11:00:25.258Z,-3.58
2019-01-24T11:05:21.281Z,-3.11
2019-01-24T11:10:19.076Z,-3.13
2019-01-24T11:15:24.319Z,-2.78
2019-01-24T11:20:20.404Z,-2.71
2019-01-24T11:25:21.282Z,-2.79
2019-01-24T11:30:23.249Z,-2.72
2019-01-24T11:35:21.551Z,-2.64
2019-01-24T11:40:18.154Z,-2.59
2019-01-24T11:45:16.545Z,-2.60
2019-01-24T11:50:17.092Z,-2.76
2019-01-24T11:55:20.188Z,-2.66
2019-01-24T12:00:23.159Z,-2.41
2019-01-24T12:05:19.219Z,-2.08
2019-01-24T12:10:23.508Z,-2.64
2019-01-24T12:15:21.740Z,-2.54
2019-01-24T12:20:19.739Z,-2.17
2019-01-24T12:25:15.642Z,-1.88
2019-01-24T12:30:18.999Z,-2.30
2019-01-24T12:35:15.102Z,-2.34
2019-01-24T12:40:16.274Z,-2.26
2019-01-24T12:45:28.732Z,-2.03
2019-01-24T12:50:24.825Z,-2.16
2019-01-24T12:55:20.818Z,-2.42
2019-01-24T13:00:21.605Z,-2.26
2019-01-24T13:05:17.705Z,-1.96
2019-01-24T13:10:16.025Z,-2.76
2019-01-24T13:15:14.926Z,-3.12
2019-01-24T13:20:13.471Z,-2.90
2019-01-24T13:25:15.570Z,-2.82
2019-01-24T13:30:17.577Z,-3.46
2019-01-24T13:35:13.630Z,-3.57
2019-01-24T13:40:13.711Z,-3.39
2019-01-24T13:45:14.370Z,-3.52
2019-01-24T13:50:16.024Z,-3.65
2019-01-24T13:55:16.175Z,-3.32
2019-01-24T14:00:23.314Z,-2.98
2019-01-24T14:05:19.410Z,-2.88
2019-01-24T14:10:16.538Z,-3.15
2019-01-24T14:15:15.252Z,-3.41
2019-01-24T14:20:15.062Z,-3.29
2019-01-24T14:25:13.758Z,-3.46
2019-01-24T14:30:13.469Z,-3.38
2019-01-24T14:35:09.516Z,-3.63
2019-01-24T14:40:09.190Z,-3.49
2019-01-24T14:45:12.023Z,-3.79
2019-01-24T14:50:17.005Z,-3.84
2019-01-24T14:55:13.320Z,-3.79
2019-01-24T15:00:28.199Z,-3.66
2019-01-24T15:05:24.186Z,-3.22
2019-01-24T15:10:22.168Z,-3.49
2019-01-24T15:15:21.847Z,-3.58
2019-01-24T15:20:19.855Z,-3.45
2019-01-24T15:25:17.351Z,-3.36
2019-01-24T15:30:17.649Z,-3.49
2019-01-24T15:35:15.494Z,-3.52
2019-01-24T15:40:16.541Z,-3.08
2019-01-24T15:45:15.747Z,-3.70
2019-01-24T15:50:15.530Z,-3.80
2019-01-24T15:55:11.935Z,-3.72
2019-01-24T16:00:20.156Z,-3.76
2019-01-24T16:05:16.143Z,-3.89
2019-01-24T16:10:14.656Z,-3.65
2019-01-24T16:15:19.278Z,-3.36
2019-01-24T16:20:17.711Z,-3.67
2019-01-24T16:25:15.984Z,-3.87
2019-01-24T16:30:21.364Z,-3.85
2019-01-24T16:35:18.470Z,-3.70
2019-01-24T16:40:22.603Z,-3.69
2019-01-24T16:45:20.618Z,-3.60
2019-01-24T16:50:18.821Z,-3.46
2019-01-24T16:55:16.119Z,-3.41
2019-01-24T17:00:18.598Z,-3.40
2019-01-24T17:05:14.741Z,-3.47
2019-01-24T17:10:20.522Z,-3.40
2019-01-24T17:15:17.617Z,-3.29
2019-01-24T17:20:16.570Z,-3.28
2019-01-24T17:25:12.790Z,-3.55
2019-01-24T17:30:15.264Z,-3.27
2019-01-24T17:35:11.263Z,-3.19
2019-01-24T17:40:10.962Z,-3.31
2019-01-24T17:45:10.359Z,-3.47
2019-01-24T17:50:09.474Z,-3.21
2019-01-24T17:55:09.257Z,-2.92
2019-01-24T18:00:12.584Z,-3.06
2019-01-24T18:05:08.588Z,-3.32
2019-01-24T18:10:22.778Z,-2.99
2019-01-24T18:15:21.792Z,-3.11
2019-01-24T18:20:20.647Z,-3.17
2019-01-24T18:25:16.634Z,-3.15
2019-01-24T18:30:26.919Z,-3.10
2019-01-24T18:35:22.918Z,-3.31
2019-01-24T18:40:25.654Z,-3.39
2019-01-24T18:45:25.312Z,-3.18
2019-01-24T18:50:21.298Z,-3.57
2019-01-24T18:55:17.204Z,-3.37
2019-01-24T19:00:17.197Z,-3.53
2019-01-24T19:05:13.290Z,-3.49
2019-01-24T19:10:12.932Z,-3.34
2019-01-24T19:15:12.575Z,-3.38
2019-01-24T19:20:10.790Z,-2.83
2019-01-24T19:25:13.368Z,-2.96
2019-01-24T19:30:21.479Z,-2.94
2019-01-24T19:35:17.479Z,-3.38
2019-01-24T19:40:19.185Z,-3.37
2019-01-24T19:45:39.801Z,-3.36
2019-01-24T19:50:35.805Z,-3.29
2019-01-24T19:55:31.707Z,-3.27
2019-01-24T20:00:33.443Z,-3.39
2019-01-24T20:05:29.506Z,-3.22
2019-01-24T20:10:27.300Z,-3.27
2019-01-24T20:15:30.489Z,-3.58
2019-01-24T20:20:26.882Z,-3.46
2019-01-24T20:25:26.087Z,-3.38
2019-01-24T20:30:27.276Z,-3.41
2019-01-24T20:35:29.476Z,-3.08
2019-01-24T20:40:25.570Z,-3.15
2019-01-24T20:45:21.467Z,-3.11
2019-01-24T20:50:17.363Z,-3.30
2019-01-24T20:55:14.665Z,-3.14
2019-01-24T21:00:16.478Z,-3.12
2019-01-24T21:05:40.306Z,-3.21
2019-01-24T21:10:36.205Z,-3.07
2019-01-24T21:15:32.206Z,-2.92
2019-01-24T21:20:30.218Z,-3.44
2019-01-24T21:25:26.314Z,-3.44
2019-01-24T21:30:38.980Z,-3.35
2019-01-24T21:35:34.973Z,-3.32
2019-01-24T21:40:31.725Z,-3.39
2019-01-24T21:45:35.943Z,-3.66
2019-01-24T21:50:31.914Z,-3.66
2019-01-24T21:55:28.411Z,-3.59
2019-01-24T22:00:26.405Z,-3.72
2019-01-24T22:05:22.695Z,-3.51
2019-01-24T22:10:26.706Z,-3.14
2019-01-24T22:15:24.805Z,-3.65
2019-01-24T22:20:20.706Z,-3.47
2019-01-24T22:25:23.053Z,-3.47
2019-01-24T22:30:26.474Z,-3.42
2019-01-24T22:35:22.370Z,-3.39
2019-01-24T22:40:18.568Z,-3.31
2019-01-24T22:45:17.676Z,-3.77
2019-01-24T22:50:14.564Z,-3.55
2019-01-24T22:55:11.553Z,-3.46
2019-01-24T23:00:54.708Z,-3.42
2019-01-24T23:05:50.602Z,-2.95
2019-01-24T23:10:46.529Z,-3.12
2019-01-24T23:15:42.526Z,-3.21
2019-01-24T23:20:38.429Z,-3.62
2019-01-24T23:25:34.434Z,-3.32
2019-01-24T23:30:30.334Z,-3.32
2019-01-24T23:35:26.335Z,-3.27
2019-01-24T23:40:22.207Z,-3.43
2019-01-24T23:45:18.139Z,-3.30
2019-01-24T23:50:14.089Z,-3.30
2019-01-24T23:55:09.982Z,-3.17
